KNRS/NRS METAR and TAF weather

Enter ICAO airport designator
Station Type Date Time Source
KNRS METAR 2022/11/30 17:53 UTC NOAA

KNRS 301753Z 07008KT 7SM FEW024 OVC030 14/09 A3007 RMK AO2 SLP181 T01440089 10144 20094 51010 $


Station Type Date Time Source
KNRS Decoded METAR 2022/11/30 17:53 UTC NOAA

IMPERIAL BEACH, NOLF, CA, United States (KNRS) 32-34N 117-07W 5M
Nov 30, 2022 - 12:53 PM EST / 2022.11.30 1753 UTC
Wind: from the ENE (070 degrees) at 9 MPH (8 KT):0
Visibility: 7 mile(s):0
Sky conditions: overcast
Temperature: 57.9 F (14.4 C)
Dew Point: 48.0 F (8.9 C)
Relative Humidity: 69%
Pressure (altimeter): 30.07 in. Hg (1018 hPa)
Pressure tendency: 0.03 inches (1.0 hPa) higher than three hours ago
ob: KNRS 301753Z 07008KT 7SM FEW024 OVC030 14/09 A3007 RMK AO2 SLP181 T01440089 10144 20094 51010
cycle: 18

Station Type Date Time Source
KNRS TAF UTC NOAA

Error!

Example: see airport list